forecast review of n.
Download
Skip this Video
Loading SlideShow in 5 Seconds..
Forecast Review of PowerPoint Presentation
Download Presentation
Forecast Review of

Loading in 2 Seconds...

play fullscreen
1 / 36

Forecast Review of - PowerPoint PPT Presentation


  • 92 Views
  • Uploaded on

Forecast Review of. Vladivostok. Vladivostok, Russia. Founded: July 2, 1860 Population: 592,069 22 nd Largest City in Russia Density: 987/km 2 (2,560/ sq mi) Primorsky Krai Province “Ruler of the East”

loader
I am the owner, or an agent authorized to act on behalf of the owner, of the copyrighted work described.
capcha
Download Presentation

PowerPoint Slideshow about 'Forecast Review of' - sequoia-lopez


An Image/Link below is provided (as is) to download presentation

Download Policy: Content on the Website is provided to you AS IS for your information and personal use and may not be sold / licensed / shared on other websites without getting consent from its author.While downloading, if for some reason you are not able to download a presentation, the publisher may have deleted the file from their server.


- - - - - - - - - - - - - - - - - - - - - - - - - - E N D - - - - - - - - - - - - - - - - - - - - - - - - - -
Presentation Transcript
vladivostok russia
Vladivostok, Russia
  • Founded: July 2, 1860
  • Population: 592,069
  • 22nd Largest City in Russia
  • Density: 987/km2

(2,560/sq mi)

  • PrimorskyKrai Province
  • “Ruler of the East”
  • Starting point of Ussuri Highway, easternmost part of Trans-Siberian Highway
uhww vladivostok metar
UHWW – Vladivostok metar

UHWW 080000Z 34003MPS 9999 BKN200 M19/M27 Q1013 NOSIG RMK QFE758/1011 2581//60UHWW 072330Z 01003MPS 9999 FEW100 BKN200 M21/M27 Q1013 NOSIG RMK QFE758/1011 2581//60UHWW 072300Z 35003MPS 9999 FEW100 BKN200 M21/M28 Q1013 NOSIG RMK QFE758/1011 2581//60UHWW 072230Z VRB02MPS 9999 FEW100 BKN200 M19/M27 Q1013 NOSIG RMK QFE758/1011 2581//60UHWW 072200Z VRB02MPS 9999 FEW100 BKN200 M20/M26 Q1013 NOSIG RMK QFE758/1011 2581//60UHWW 072130Z 00000MPS 9999 BKN200 M22/M27 Q1013 NOSIG RMK QFE758/1011 2581//60UHWW 072100Z 00000MPS 9999 BKN200 M22/M29 Q1013 NOSIG RMK QFE758/1011 2581//60UHWW 072030Z 00000MPS 9999 BKN200 M19/M26 Q1013 NOSIG RMK QFE758/1011 2581//60UHWW 072000Z VRB02MPS 9999 BKN200 M20/M26 Q1013 NOSIG RMK QFE758/1011 2581//60UHWW 071930Z 05002MPS 9999 BKN200 M22/M28 Q1013 NOSIG RMK QFE759/1012 2581//60UHWW 071900Z 12002MPS 080V160 9999 BKN200 M20/M26 Q1014 NOSIG RMK QFE759/1012 2581//60

UHWW 071800Z VRB02MPS 9999 BKN200 M19/M26 Q1014 NOSIG RMK QFE759/1013 2581//60UHWW 071730Z 00000MPS 9999 SCT200 M20/M27 Q1014 NOSIG RMK QFE760/1013 2581//60UHWW 071700Z VRB01MPS 9999 SCT200 M20/M26 Q1014 NOSIG RMK QFE759/1013 2581//60UHWW 071630Z VRB01MPS 9999 SKC M21/M26 Q1014 NOSIG RMK QFE760/1013 2581//60UHWW 071600Z VRB01MPS 9999 SKC M21/M24 Q1014 NOSIG RMK QFE760/1013 2581//60UHWW 071530Z 33003MPS 9999 SKC M26/M30 Q1015 NOSIG RMK QFE760/1013 2581//60UHWW 071500Z VRB02MPS 9999 SKC M23/M26 Q1015 NOSIG RMK QFE760/1014 2581//60UHWW 071430Z 00000MPS 9999 SKC M26/M30 Q1015 NOSIG RMK QFE760/1014 2581//60UHWW 071400Z VRB01MPS 9999 SKC M25/M27 Q1016 NOSIG RMK QFE761/1014 2581//60UHWW 071330Z 00000MPS 9999 SKC M25/M27 Q1016 NOSIG RMK QFE761/1015 2581//60UHWW 071300Z VRB01MPS 9999 SKC M24/M26 Q1017 NOSIG RMK QFE761/1015 2581//60UHWW 071230Z VRB02MPS 9999 SKC M25/M28 Q1017 NOSIG RMK QFE762/1016 2581//60UHWW 071200Z VRB01MPS 9999 SKC M24/M26 Q1017 NOSIG RMK QFE762/1016 2581//60UHWW 071130Z 00000MPS 9999 SKC M24/M28 Q1017 NOSIG RMK QFE761/1015 2581//60UHWW 071100Z 00000MPS 9999 SKC M20/M24 Q1017 NOSIG RMK QFE762/1016 2581//60UHWW 071030Z 00000MPS 9999 SKC M22/M26 Q1017 NOSIG RMK QFE762/1016 2581//60UHWW 071000Z 00000MPS 9999 SKC M18/M23 Q1017 NOSIG RMK QFE761/1015 2581//60

uhww vladivostok metar1
Uhww – vladivostokmetar

UHWW 070930Z 00000MPS 9999 SKC M17/M23 Q1017 NOSIG RMK QFE762/1016 2581//60UHWW 070900Z VRB01MPS 9999 SKC M17/M23 Q1017 NOSIG RMK QFE761/1015 2581//60UHWW 070830Z 00000MPS 9999 SKC M17/M23 Q1017 NOSIG RMK QFE761/1015 2581//60UHWW 070800Z 00000MPS 9999 SKC M14/M23 Q1017 NOSIG RMK QFE761/1015 2581//60UHWW 070730Z VRB01MPS 9999 SKC M13/M23 Q1017 NOSIG RMK QFE761/1015 2581//60UHWW 070700Z 27005MPS 9999 SKC M14/M23 Q1017 NOSIG RMK QFE761/1015 2581//60UHWW 070630Z 24004MPS 9999 SKC M14/M23 Q1017 NOSIG RMK QFE762/1016 2581//60UHWW 070600Z VRB01MPS 9999 SKC M12/M24 Q1017 NOSIG RMK QFE762/1016 2581//60UHWW 070530Z 00000MPS 9999 SKC M11/M24 Q1017 NOSIG RMK QFE762/1016 2581//60UHWW 070500Z 00000MPS 9999 SKC M10/M23 Q1017 NOSIG RMK QFE762/1016 2581//60UHWW 070430Z 00000MPS 9999 SKC M11/M23 Q1018 NOSIG RMK QFE762/1016 2581//60UHWW 070400Z 00000MPS 9999 SKC M12/M23 Q1018 NOSIG RMK QFE762/1017 2581//60UHWW 070330Z 00000MPS 9999 SKC M12/M20 Q1019 NOSIG RMK QFE763/1017 2581//60UHWW 070300Z 00000MPS 9999 SKC M13/M20 Q1019 NOSIG RMK QFE763/1018 2581//60UHWW 070230Z 00000MPS 9999 SKC M16/M21 Q1020 NOSIG RMK QFE764/1018 2581//60UHWW 070200Z VRB01MPS 9999 SKC M18/M22 Q1021 NOSIG RMK QFE764/1019 2581//60UHWW 070130Z VRB01MPS 9999 SKC M21/M23 Q1021 NOSIG RMK QFE765/1020 2581//60UHWW 070100Z VRB02MPS 9999 SKC M23/M25 Q1021 NOSIG RMK QFE765/1020 2581//60UHWW 070030Z VRB01MPS 9999 SKC M25/M27 Q1022 NOSIG RMK QFE765/1020 2581//60UHWW 070000Z VRB01MPS 9999 SKC M26/M29 Q1022 NOSIG RMK QFE765/1020 2581//60UHWW 062330Z 00000MPS 9999 SKC M26/M29 Q1022 NOSIG RMK QFE765/1020 2581//60UHWW 062300Z VRB01MPS 9999 SKC M29/M31 Q1022 NOSIG RMK QFE765/1020 2581//60UHWW 062230Z VRB02MPS 9999 SKC M29/M32 Q1022 NOSIG RMK QFE765/1020 2581//60UHWW 062200Z VRB01MPS 9999 SKC M30/M33 Q1022 NOSIG RMK QFE765/1020 2582//60UHWW 062130Z VRB01MPS 9999 SKC M28/M31 Q1022 NOSIG RMK QFE765/1020 2582//60UHWW 062100Z VRB01MPS 9999 SKC M29/M32 Q1022 NOSIG RMK QFE765/1020 2582//60

uhww vladivostok metar2
Uhww – vladivostokmetar

UHWW 062030Z 00000MPS 9999 SKC M27/M30 Q1021 NOSIG RMK QFE765/1020 2582//60UHWW 062000Z 00000MPS 9999 SKC M28/M31 Q1021 NOSIG RMK QFE765/1020 2582//60UHWW 061930Z VRB01MPS 9999 SKC M25/M28 Q1021 NOSIG RMK QFE765/1020 2582//60UHWW 061900Z VRB02MPS 9999 SKC M26/M29 Q1022 NOSIG RMK QFE765/1020 2582//60UHWW 061830Z 00000MPS 9999 SKC M27/M30 Q1022 NOSIG RMK QFE765/1020 2582//60UHWW 061830Z 00000MPS 9999 SKC M27/M30 Q1022 NOSIG RMK QFE765/1020 2582//60UHWW 061800Z 00000MPS 9999 SKC M26/M28 Q1022 NOSIG RMK QFE765/1020 2582//60UHWW 061730Z VRB02MPS 9999 SKC M24/M27 Q1022 NOSIG RMK QFE765/1020 2582//60UHWW 061700Z 33002MPS 9999 SKC M26/M29 Q1022 NOSIG RMK QFE765/1020 2582//60UHWW 061630Z 29002MPS 9999 SKC M27/M29 Q1022 NOSIG RMK QFE765/1021 2582//60UHWW 061600Z 27002MPS 9999 SKC M25/M28 Q1022 NOSIG RMK QFE766/1021 2582//60UHWW 061530Z VRB02MPS 9999 SKC M23/M28 Q1022 NOSIG RMK QFE765/1021 2582//60UHWW 061500Z 26003MPS 9999 SKC M23/M28 Q1022 NOSIG RMK QFE766/1021 2582//60UHWW 061430Z 26003MPS 9999 SKC M20/M26 Q1022 NOSIG RMK QFE765/1021 2582//60UHWW 061400Z 26003MPS 9999 SKC M21/M26 Q1022 NOSIG RMK QFE765/1020 2582//60UHWW 061330Z 27003MPS 9999 SKC M21/M26 Q1022 NOSIG RMK QFE765/1020 2582//60UHWW 061300Z 26004MPS 9999 SKC M19/M26 Q1021 NOSIG RMK QFE765/1020 2582//60UHWW 061230Z 27002MPS 9999 SKC M16/M26 Q1021 NOSIG RMK QFE764/1019 2582//60UHWW 061200Z 29002MPS 9999 SKC M16/M25 Q1021 NOSIG RMK QFE764/1019 2582//60

uhww vladivostok synop
UHWW – Vladivostok synop

(12/6 12z) 31960 42998 03408 11140 21235 39961 40211 52025 333 91013 91114=

Temp: -14.0 C =6.8 F

(12/6 18z) 31960 42998 03306 11153 21224 39969 40220 57008 333 91011 91113=

Temp: -15.3 C= 4.46 F

(12/7 0z) 31960 42998 03204 11151 21222 39968 40219 52003 333 21165 55056 91010 91111=

Temp: -15.1 C = 4.82 F

( 12/7 6z) 31960 42998 03201 11121 21221 39931 40178 56017=

Temp: -12.1 C = 10.22 F

( 12/7 12z) 31960 42998 03406 11137 21194 39923 40172 58003=

Temp: -13.7 C = 7.34 F

(12/7 18z) 07181 31960 42998 03507 11167 21237 39891 40142 58004 333 91014 91116

Temp : -11.67 C = 2 F

Dew Point: -23.7 C =- 11 F

(12/8 0z) 31960 42998 23604 11182 21241 39880 40132 52004 80001 333 21184 55071 91111=

Temp: -18.2 C = -1 F

uhww lessons learned
Uhww lessons learned
  • Surface temperatures are warmer near the coast compared to areas further inland and can change drastically over a short distance.
  • Observations may not be as reliable in foreign countries.
  • Variable winds occur when the direction is variable and the wind speed is less than 6 knots.
matsue japan
Matsue, Japan
  • Founded: April 1, 1889
  • Population: 191,852
  • Density: 361.84/km2

(937.2/sq mi)

  • Shimane Province
  • 2nd largest city on Sea of Japan coast
  • “Water City”
  • Matsue castle built 1611
rjoh miho ab metar
Rjoh – mihoabmetar

RJOH 080000Z 28022G32KT 9999 FEW015 BKN030 BKN040 06/M04 Q1014RJOH 072300Z 27025G35KT 9999 FEW015 BKN030 BKN040 06/M03 Q1013RJOH 072200Z 28024G35KT 9999 -SHRA FEW010 SCT030 BKN040 07/M02 Q1011RJOH 072100Z 28019KT 9999 FEW025 BKN035 07/01 Q1010

RJOH 072000Z 28022G32KT 9999 -SHRA FEW025 BKN035 06/02 Q1010RJOH 071900Z 26021G31KT 9000 -SHRA FEW015 SCT025 BKN040 08/02 Q1009

RJOH 071800Z 23013KT 9999 -SHRA FEW025 BKN040 08/03 Q1009RJOH 071700Z 24011KT 9999 -SHRA FEW015 SCT025 FEW025CB BKN035 07/04 Q1010RJOH 071600Z 20013KT 9999 -SHRA FEW015 BKN025 FEW025CB 06/04 Q1010RJOH 071500Z 20012KT 9999 -SHRA FEW015 BKN025 FEW025CB 06/04 Q1010RJOH 071400Z 19003KT 150V230 8000 -SHRA FEW015 BKN025 FEW025CB 06/03 Q1010RJOH 071300Z 20011KT 9999 FEW035CB BKN045 07/01 Q1011RJOH 071200Z 17007KT 9999 FEW045 BKN050 06/M01 Q1011RJOH 071100Z 17011KT 9999 FEW045 BKN050 06/M01 Q1013RJOH 071000Z 18011KT 9999 FEW045 BKN050 BKN100 06/M01 Q1013RJOH 070900Z 18009KT 9999 FEW045 SCT050 OVC110 07/M02 Q1014RJOH 070800Z 16007KT 9999 FEW045 SCT100 OVC120 07/M02 Q1014RJOH 070700Z 15008KT 9999 FEW045 SCT130 BKN250 07/M02 Q1016RJOH 070600Z 17007KT 140V210 9999 FEW045 BKN250 08/M03 Q1017RJOH 070500Z 15004KT 110V200 9999 FEW045 08/M03 Q1018RJOH 070400Z 19007KT 9999 FEW040 SCT045 08/M03 Q1020

rjoh miho ab metar1
Rjoh – mihoabmetar

RJOH 070300Z 22008KT 9999 FEW035 SCT040 08/M01 Q1021RJOH 070200Z 20005KT 180V240 9999 FEW010 SCT035 07/00 Q1022RJOH 070100Z 23007KT 200V260 9999 FEW010 SCT015 BKN035 04/00 Q1023RJOH 070000Z 18007KT 9999 FEW008 BKN035 BKN050 04/01 Q1023RJOH 062300Z 23004KT 200V270 9999 -SHRASN FEW008 BKN035 02/00 Q1023RJOH 062200Z 19007KT 9999 -SHRASN FEW008 SCT020 BKN030 02/00 Q1022RJOH 062100Z 22010KT 9999 -SHSN FEW020 BKN030 01/M00 Q1022RJOH 062000Z 19009KT 9999 -SHSN FEW020 SCT030 BKN040 03/M02 Q1022RJOH 061900Z 19009KT 160V260 9999 FEW040 BKN050 03/M03 Q1021RJOH 061800Z 21011KT 9999 -SHRASN FEW035 SCT040 BKN050 04/M04 Q1022RJOH 061700Z 23009KT 9999 FEW035 BKN050 03/M04 Q1022RJOH 061600Z 21005KT 170V250 9999 FEW035 SCT040 BKN050 03/M05 Q1021RJOH 061500Z 19008KT 9999 FEW035 BKN050 03/M04 Q1022RJOH 061400Z 19009KT 9999 FEW035 BKN050 03/M04 Q1022RJOH 061300Z 23012KT 9999 FEW035 BKN050 03/M06 Q1022RJOH 061200Z 24016KT 9999 FEW030 SCT035 BKN050 03/M05 Q1022

rjoh miho ab synop
RJOH – MIHoabsynop

(12/6-12z) 47741 11/80 72614 10035 21057 30210 40238 50009 69902 70282 872//333 10049=

(12/6-18z) 47741 11/80 72407 10036 21041 30205 40233 53003 69901 72682 872//=

(12/7-0z) 47741 11/80 72614 10035 21057 30210 40238 50009 69902 70282 872//333 10049=

(12/7-6z) 47741 12/75 21307 10072 21025 30151 40179 58042 60001 81132=

(12/7-12z) 47741 11/80 62008 10072 21003 30096 40123 58027 69902 71381 8690//333 10078=

(12/7-18z) 47741 11/65 82528 10074 20023 30082 40109 50004 60021 78098 882//=

(12/8-0z) 47741 11/80 72824 10055 21041 30124 40152 51033 60022 70282 872//333 20054 70020=

rjoh lessons learned
Rjoh lessons learned
  • Clearing of low-level clouds allows for more surface heating during the daytime.
  • Snow can fall above freezing when the air is relatively dry.
  • Cb development can occur because of frontal lifting of warm moist air.